sensor_id;sensor_type;location;lat;lon;timestamp;P1;durP1;ratioP1;P2;durP2;ratioP2
52962;SDS011;38827;53.024;6.596;2024-03-02T00:01:58;3.63;;;2.40;;
52962;SDS011;38827;53.024;6.596;2024-03-02T00:04:24;4.80;;;2.47;;
52962;SDS011;38827;53.024;6.596;2024-03-02T00:06:52;3.35;;;2.47;;
52962;SDS011;38827;53.024;6.596;2024-03-02T00:09:20;3.67;;;2.50;;
52962;SDS011;38827;53.024;6.596;2024-03-02T00:11:45;3.40;;;2.60;;
52962;SDS011;38827;53.024;6.596;2024-03-02T00:14:12;3.75;;;2.63;;
52962;SDS011;38827;53.024;6.596;2024-03-02T00:19:09;3.78;;;2.65;;
52962;SDS011;38827;53.024;6.596;2024-03-02T00:21:35;4.70;;;2.60;;
52962;SDS011;38827;53.024;6.596;2024-03-02T00:26:59;4.28;;;2.70;;
52962;SDS011;38827;53.024;6.596;2024-03-02T00:29:32;3.25;;;2.50;;
52962;SDS011;38827;53.024;6.596;2024-03-02T00:32:17;3.40;;;2.42;;
52962;SDS011;38827;53.024;6.596;2024-03-02T00:34:59;3.72;;;3.03;;
52962;SDS011;38827;53.024;6.596;2024-03-02T00:37:42;5.03;;;2.72;;
52962;SDS011;38827;53.024;6.596;2024-03-02T00:40:43;3.38;;;2.70;;
52962;SDS011;38827;53.024;6.596;2024-03-02T00:49:12;4.85;;;2.70;;
52962;SDS011;38827;53.024;6.596;2024-03-02T00:52:03;3.50;;;2.50;;
52962;SDS011;38827;53.024;6.596;2024-03-02T00:54:30;3.97;;;2.65;;
52962;SDS011;38827;53.024;6.596;2024-03-02T00:57:01;4.65;;;2.42;;
52962;SDS011;38827;53.024;6.596;2024-03-02T00:59:27;4.32;;;2.60;;
52962;SDS011;38827;53.024;6.596;2024-03-02T01:01:57;2.95;;;2.42;;
52962;SDS011;38827;53.024;6.596;2024-03-02T01:04:35;4.05;;;2.90;;
52962;SDS011;38827;53.024;6.596;2024-03-02T01:07:10;3.60;;;2.53;;
52962;SDS011;38827;53.024;6.596;2024-03-02T01:09:51;4.38;;;2.70;;
52962;SDS011;38827;53.024;6.596;2024-03-02T01:12:28;3.70;;;2.53;;
52962;SDS011;38827;53.024;6.596;2024-03-02T01:15:00;4.18;;;2.63;;
52962;SDS011;38827;53.024;6.596;2024-03-02T01:17:43;3.92;;;2.60;;
52962;SDS011;38827;53.024;6.596;2024-03-02T01:20:14;3.85;;;2.70;;
52962;SDS011;38827;53.024;6.596;2024-03-02T01:22:49;4.22;;;3.00;;
52962;SDS011;38827;53.024;6.596;2024-03-02T01:25:18;3.85;;;3.13;;
52962;SDS011;38827;53.024;6.596;2024-03-02T01:30:40;4.75;;;2.97;;
52962;SDS011;38827;53.024;6.596;2024-03-02T01:33:16;4.82;;;2.92;;
52962;SDS011;38827;53.024;6.596;2024-03-02T01:35:57;3.25;;;2.72;;
52962;SDS011;38827;53.024;6.596;2024-03-02T01:41:13;4.38;;;2.85;;
52962;SDS011;38827;53.024;6.596;2024-03-02T01:43:42;6.82;;;3.10;;
52962;SDS011;38827;53.024;6.596;2024-03-02T01:46:20;5.03;;;3.15;;
52962;SDS011;38827;53.024;6.596;2024-03-02T01:48:46;5.25;;;3.30;;
52962;SDS011;38827;53.024;6.596;2024-03-02T01:51:12;4.30;;;3.10;;
52962;SDS011;38827;53.024;6.596;2024-03-02T01:53:57;6.28;;;3.33;;
52962;SDS011;38827;53.024;6.596;2024-03-02T01:56:25;5.75;;;3.30;;
52962;SDS011;38827;53.024;6.596;2024-03-02T01:58:54;4.13;;;3.25;;
52962;SDS011;38827;53.024;6.596;2024-03-02T02:01:31;3.72;;;3.30;;
52962;SDS011;38827;53.024;6.596;2024-03-02T02:03:57;4.68;;;3.20;;
52962;SDS011;38827;53.024;6.596;2024-03-02T02:06:26;4.30;;;3.05;;
52962;SDS011;38827;53.024;6.596;2024-03-02T02:08:55;4.50;;;3.20;;
52962;SDS011;38827;53.024;6.596;2024-03-02T02:11:24;5.95;;;3.35;;
52962;SDS011;38827;53.024;6.596;2024-03-02T02:14:11;4.63;;;3.30;;
52962;SDS011;38827;53.024;6.596;2024-03-02T02:16:52;5.32;;;3.40;;
52962;SDS011;38827;53.024;6.596;2024-03-02T02:19:17;3.78;;;3.10;;
52962;SDS011;38827;53.024;6.596;2024-03-02T02:21:46;4.25;;;3.20;;
52962;SDS011;38827;53.024;6.596;2024-03-02T02:24:14;4.05;;;3.00;;
52962;SDS011;38827;53.024;6.596;2024-03-02T02:26:49;3.40;;;2.80;;
52962;SDS011;38827;53.024;6.596;2024-03-02T02:29:24;4.05;;;3.00;;
52962;SDS011;38827;53.024;6.596;2024-03-02T02:31:54;4.25;;;3.10;;
52962;SDS011;38827;53.024;6.596;2024-03-02T02:34:19;5.30;;;3.00;;
52962;SDS011;38827;53.024;6.596;2024-03-02T02:39:49;3.75;;;3.00;;
52962;SDS011;38827;53.024;6.596;2024-03-02T02:42:39;4.47;;;3.03;;
52962;SDS011;38827;53.024;6.596;2024-03-02T02:45:07;4.45;;;3.15;;
52962;SDS011;38827;53.024;6.596;2024-03-02T02:47:36;3.80;;;2.80;;
52962;SDS011;38827;53.024;6.596;2024-03-02T02:50:02;3.25;;;2.80;;
52962;SDS011;38827;53.024;6.596;2024-03-02T02:52:47;3.78;;;2.83;;
52962;SDS011;38827;53.024;6.596;2024-03-02T02:55:15;3.45;;;2.83;;
52962;SDS011;38827;53.024;6.596;2024-03-02T02:57:52;3.90;;;2.75;;
52962;SDS011;38827;53.024;6.596;2024-03-02T03:00:21;4.43;;;3.05;;
52962;SDS011;38827;53.024;6.596;2024-03-02T03:03:06;3.35;;;2.63;;
52962;SDS011;38827;53.024;6.596;2024-03-02T03:05:34;3.60;;;2.58;;
52962;SDS011;38827;53.024;6.596;2024-03-02T03:08:12;3.42;;;2.50;;
52962;SDS011;38827;53.024;6.596;2024-03-02T03:10:37;3.78;;;2.50;;
52962;SDS011;38827;53.024;6.596;2024-03-02T03:13:22;3.55;;;2.42;;
52962;SDS011;38827;53.024;6.596;2024-03-02T03:15:47;4.05;;;2.40;;
52962;SDS011;38827;53.024;6.596;2024-03-02T03:18:19;3.45;;;2.50;;
52962;SDS011;38827;53.024;6.596;2024-03-02T03:20:54;3.38;;;2.50;;
52962;SDS011;38827;53.024;6.596;2024-03-02T03:23:22;4.00;;;2.95;;
52962;SDS011;38827;53.024;6.596;2024-03-02T03:26:03;3.13;;;2.50;;
52962;SDS011;38827;53.024;6.596;2024-03-02T03:28:41;3.67;;;2.60;;
52962;SDS011;38827;53.024;6.596;2024-03-02T03:31:19;4.00;;;2.55;;
52962;SDS011;38827;53.024;6.596;2024-03-02T03:33:57;3.63;;;2.75;;
52962;SDS011;38827;53.024;6.596;2024-03-02T03:36:27;4.65;;;2.92;;
52962;SDS011;38827;53.024;6.596;2024-03-02T03:38:56;3.85;;;2.28;;
52962;SDS011;38827;53.024;6.596;2024-03-02T03:41:25;3.50;;;2.50;;
52962;SDS011;38827;53.024;6.596;2024-03-02T03:44:05;3.10;;;2.50;;
52962;SDS011;38827;53.024;6.596;2024-03-02T03:49:21;4.50;;;2.72;;
52962;SDS011;38827;53.024;6.596;2024-03-02T03:51:50;6.80;;;3.63;;
52962;SDS011;38827;53.024;6.596;2024-03-02T03:54:27;3.58;;;2.50;;
52962;SDS011;38827;53.024;6.596;2024-03-02T03:56:57;4.47;;;2.63;;
52962;SDS011;38827;53.024;6.596;2024-03-02T03:59:25;3.45;;;2.53;;
52962;SDS011;38827;53.024;6.596;2024-03-02T04:01:51;3.28;;;2.13;;
52962;SDS011;38827;53.024;6.596;2024-03-02T04:04:38;3.63;;;2.60;;
52962;SDS011;38827;53.024;6.596;2024-03-02T04:07:06;4.13;;;2.50;;
52962;SDS011;38827;53.024;6.596;2024-03-02T04:12:24;4.50;;;2.55;;
52962;SDS011;38827;53.024;6.596;2024-03-02T04:14:52;4.75;;;2.47;;
52962;SDS011;38827;53.024;6.596;2024-03-02T04:20:18;3.80;;;2.60;;
52962;SDS011;38827;53.024;6.596;2024-03-02T04:23:04;3.03;;;2.25;;
52962;SDS011;38827;53.024;6.596;2024-03-02T04:28:35;4.15;;;2.17;;
52962;SDS011;38827;53.024;6.596;2024-03-02T04:31:14;5.05;;;2.30;;
52962;SDS011;38827;53.024;6.596;2024-03-02T04:33:49;5.20;;;2.70;;
52962;SDS011;38827;53.024;6.596;2024-03-02T04:36:20;2.90;;;2.40;;
52962;SDS011;38827;53.024;6.596;2024-03-02T04:41:42;5.40;;;2.30;;
52962;SDS011;38827;53.024;6.596;2024-03-02T04:44:11;3.05;;;2.20;;
52962;SDS011;38827;53.024;6.596;2024-03-02T04:46:42;3.67;;;2.47;;
52962;SDS011;38827;53.024;6.596;2024-03-02T04:49:11;3.25;;;2.25;;
52962;SDS011;38827;53.024;6.596;2024-03-02T04:51:48;4.65;;;2.50;;
52962;SDS011;38827;53.024;6.596;2024-03-02T04:54:17;4.75;;;2.53;;
52962;SDS011;38827;53.024;6.596;2024-03-02T04:56:52;5.82;;;2.40;;
52962;SDS011;38827;53.024;6.596;2024-03-02T04:59:24;3.00;;;2.15;;
52962;SDS011;38827;53.024;6.596;2024-03-02T05:01:55;3.47;;;2.28;;
52962;SDS011;38827;53.024;6.596;2024-03-02T05:04:24;3.95;;;2.60;;
52962;SDS011;38827;53.024;6.596;2024-03-02T05:06:56;4.75;;;2.65;;
52962;SDS011;38827;53.024;6.596;2024-03-02T05:09:23;3.00;;;2.38;;
52962;SDS011;38827;53.024;6.596;2024-03-02T05:12:01;4.68;;;2.40;;
52962;SDS011;38827;53.024;6.596;2024-03-02T05:14:51;4.03;;;2.20;;
52962;SDS011;38827;53.024;6.596;2024-03-02T05:17:23;3.72;;;2.38;;
52962;SDS011;38827;53.024;6.596;2024-03-02T05:19:49;3.67;;;2.50;;
52962;SDS011;38827;53.024;6.596;2024-03-02T05:22:36;3.45;;;2.47;;
52962;SDS011;38827;53.024;6.596;2024-03-02T05:25:26;3.17;;;2.45;;
52962;SDS011;38827;53.024;6.596;2024-03-02T05:27:58;4.88;;;2.60;;
52962;SDS011;38827;53.024;6.596;2024-03-02T05:30:26;4.97;;;2.60;;
52962;SDS011;38827;53.024;6.596;2024-03-02T05:32:58;3.78;;;2.40;;
52962;SDS011;38827;53.024;6.596;2024-03-02T05:35:27;5.03;;;2.75;;
52962;SDS011;38827;53.024;6.596;2024-03-02T05:37:59;4.43;;;2.53;;
52962;SDS011;38827;53.024;6.596;2024-03-02T05:40:25;5.18;;;2.60;;
52962;SDS011;38827;53.024;6.596;2024-03-02T05:42:56;5.43;;;2.30;;
52962;SDS011;38827;53.024;6.596;2024-03-02T05:45:40;3.25;;;2.42;;
52962;SDS011;38827;53.024;6.596;2024-03-02T05:48:24;2.97;;;2.47;;
52962;SDS011;38827;53.024;6.596;2024-03-02T05:50:56;3.42;;;2.78;;
52962;SDS011;38827;53.024;6.596;2024-03-02T05:53:21;3.90;;;2.90;;
52962;SDS011;38827;53.024;6.596;2024-03-02T05:56:06;3.40;;;2.67;;
52962;SDS011;38827;53.024;6.596;2024-03-02T05:58:32;4.78;;;2.80;;
52962;SDS011;38827;53.024;6.596;2024-03-02T06:04:13;4.85;;;2.88;;
52962;SDS011;38827;53.024;6.596;2024-03-02T06:06:58;4.10;;;2.95;;
52962;SDS011;38827;53.024;6.596;2024-03-02T06:09:42;3.38;;;2.75;;
52962;SDS011;38827;53.024;6.596;2024-03-02T06:12:52;2.95;;;2.60;;
52962;SDS011;38827;53.024;6.596;2024-03-02T06:17:53;4.95;;;3.00;;
52962;SDS011;38827;53.024;6.596;2024-03-02T06:20:32;4.13;;;2.60;;
52962;SDS011;38827;53.024;6.596;2024-03-02T06:26:04;3.47;;;2.58;;
52962;SDS011;38827;53.024;6.596;2024-03-02T06:28:32;5.13;;;3.05;;
52962;SDS011;38827;53.024;6.596;2024-03-02T06:31:53;4.75;;;3.35;;
52962;SDS011;38827;53.024;6.596;2024-03-02T06:37:41;5.75;;;3.13;;
52962;SDS011;38827;53.024;6.596;2024-03-02T06:40:16;5.05;;;2.83;;
52962;SDS011;38827;53.024;6.596;2024-03-02T06:42:41;3.90;;;2.92;;
52962;SDS011;38827;53.024;6.596;2024-03-02T06:45:10;3.38;;;2.80;;
52962;SDS011;38827;53.024;6.596;2024-03-02T06:47:36;3.40;;;2.60;;
52962;SDS011;38827;53.024;6.596;2024-03-02T06:50:02;4.07;;;2.53;;
52962;SDS011;38827;53.024;6.596;2024-03-02T06:53:13;4.70;;;2.75;;
52962;SDS011;38827;53.024;6.596;2024-03-02T06:55:45;4.18;;;2.80;;
52962;SDS011;38827;53.024;6.596;2024-03-02T06:58:26;4.05;;;2.85;;
52962;SDS011;38827;53.024;6.596;2024-03-02T07:00:55;4.00;;;2.78;;
52962;SDS011;38827;53.024;6.596;2024-03-02T07:03:24;3.42;;;2.92;;
52962;SDS011;38827;53.024;6.596;2024-03-02T07:05:51;7.60;;;3.20;;
52962;SDS011;38827;53.024;6.596;2024-03-02T07:08:20;5.55;;;3.80;;
52962;SDS011;38827;53.024;6.596;2024-03-02T07:10:45;6.05;;;3.42;;
52962;SDS011;38827;53.024;6.596;2024-03-02T07:13:12;4.20;;;2.80;;
52962;SDS011;38827;53.024;6.596;2024-03-02T07:18:29;4.68;;;3.03;;
52962;SDS011;38827;53.024;6.596;2024-03-02T07:21:18;4.18;;;3.40;;
52962;SDS011;38827;53.024;6.596;2024-03-02T07:23:45;4.53;;;3.50;;
52962;SDS011;38827;53.024;6.596;2024-03-02T07:26:26;3.53;;;2.78;;
52962;SDS011;38827;53.024;6.596;2024-03-02T07:29:07;4.00;;;3.08;;
52962;SDS011;38827;53.024;6.596;2024-03-02T07:31:32;4.95;;;2.50;;
52962;SDS011;38827;53.024;6.596;2024-03-02T07:34:16;3.90;;;2.50;;
52962;SDS011;38827;53.024;6.596;2024-03-02T07:36:44;3.50;;;2.45;;
52962;SDS011;38827;53.024;6.596;2024-03-02T07:39:10;3.78;;;2.55;;
52962;SDS011;38827;53.024;6.596;2024-03-02T07:41:48;4.93;;;2.50;;
52962;SDS011;38827;53.024;6.596;2024-03-02T07:47:22;3.85;;;2.10;;
52962;SDS011;38827;53.024;6.596;2024-03-02T07:50:00;3.17;;;2.42;;
52962;SDS011;38827;53.024;6.596;2024-03-02T07:52:38;2.63;;;2.35;;
52962;SDS011;38827;53.024;6.596;2024-03-02T07:55:12;3.40;;;2.30;;
52962;SDS011;38827;53.024;6.596;2024-03-02T07:57:50;4.13;;;2.50;;
52962;SDS011;38827;53.024;6.596;2024-03-02T08:00:23;3.83;;;2.40;;
52962;SDS011;38827;53.024;6.596;2024-03-02T08:03:01;3.70;;;2.70;;
52962;SDS011;38827;53.024;6.596;2024-03-02T08:18:34;1.92;;;1.23;;
52962;SDS011;38827;53.024;6.596;2024-03-02T08:21:18;2.83;;;1.33;;
52962;SDS011;38827;53.024;6.596;2024-03-02T08:23:51;1.95;;;1.30;;
52962;SDS011;38827;53.024;6.596;2024-03-02T08:26:20;1.75;;;1.30;;
52962;SDS011;38827;53.024;6.596;2024-03-02T08:29:19;2.08;;;1.00;;
52962;SDS011;38827;53.024;6.596;2024-03-02T08:31:57;2.38;;;1.02;;
52962;SDS011;38827;53.024;6.596;2024-03-02T08:34:25;1.58;;;1.02;;
52962;SDS011;38827;53.024;6.596;2024-03-02T08:39:57;2.10;;;1.10;;
52962;SDS011;38827;53.024;6.596;2024-03-02T08:42:26;1.42;;;1.13;;
52962;SDS011;38827;53.024;6.596;2024-03-02T08:54:36;2.17;;;0.98;;
52962;SDS011;38827;53.024;6.596;2024-03-02T08:57:10;1.98;;;1.00;;
52962;SDS011;38827;53.024;6.596;2024-03-02T08:59:36;1.23;;;0.70;;
52962;SDS011;38827;53.024;6.596;2024-03-02T09:02:17;1.53;;;0.97;;
52962;SDS011;38827;53.024;6.596;2024-03-02T09:04:49;2.45;;;1.10;;
52962;SDS011;38827;53.024;6.596;2024-03-02T09:07:22;1.20;;;0.80;;
52962;SDS011;38827;53.024;6.596;2024-03-02T09:12:29;3.45;;;0.90;;
52962;SDS011;38827;53.024;6.596;2024-03-02T09:14:56;1.55;;;1.00;;
52962;SDS011;38827;53.024;6.596;2024-03-02T09:25:56;2.88;;;0.80;;
52962;SDS011;38827;53.024;6.596;2024-03-02T09:28:21;1.45;;;0.70;;
52962;SDS011;38827;53.024;6.596;2024-03-02T09:33:21;3.35;;;0.82;;
52962;SDS011;38827;53.024;6.596;2024-03-02T09:41:41;1.65;;;0.50;;
52962;SDS011;38827;53.024;6.596;2024-03-02T09:44:21;1.92;;;0.60;;
52962;SDS011;38827;53.024;6.596;2024-03-02T09:47:02;1.88;;;0.80;;
52962;SDS011;38827;53.024;6.596;2024-03-02T09:49:47;2.72;;;1.00;;
52962;SDS011;38827;53.024;6.596;2024-03-02T09:52:38;1.30;;;0.80;;
52962;SDS011;38827;53.024;6.596;2024-03-02T09:55:15;1.17;;;0.70;;
52962;SDS011;38827;53.024;6.596;2024-03-02T09:57:54;2.97;;;0.90;;
52962;SDS011;38827;53.024;6.596;2024-03-02T10:00:30;1.85;;;0.82;;
52962;SDS011;38827;53.024;6.596;2024-03-02T10:03:11;3.38;;;1.10;;
52962;SDS011;38827;53.024;6.596;2024-03-02T10:05:41;1.58;;;0.80;;
52962;SDS011;38827;53.024;6.596;2024-03-02T10:08:25;1.17;;;0.70;;
52962;SDS011;38827;53.024;6.596;2024-03-02T10:10:51;2.97;;;0.90;;
52962;SDS011;38827;53.024;6.596;2024-03-02T10:13:24;2.13;;;0.70;;
52962;SDS011;38827;53.024;6.596;2024-03-02T10:15:56;1.92;;;0.80;;
52962;SDS011;38827;53.024;6.596;2024-03-02T10:18:45;2.30;;;1.05;;
52962;SDS011;38827;53.024;6.596;2024-03-02T10:28:45;1.98;;;1.00;;
52962;SDS011;38827;53.024;6.596;2024-03-02T10:31:25;1.45;;;0.85;;
52962;SDS011;38827;53.024;6.596;2024-03-02T10:34:02;2.17;;;1.23;;
52962;SDS011;38827;53.024;6.596;2024-03-02T10:38:58;2.93;;;1.10;;
52962;SDS011;38827;53.024;6.596;2024-03-02T10:41:27;2.58;;;1.10;;
52962;SDS011;38827;53.024;6.596;2024-03-02T10:43:55;2.08;;;0.98;;
52962;SDS011;38827;53.024;6.596;2024-03-02T10:46:29;1.13;;;0.90;;
52962;SDS011;38827;53.024;6.596;2024-03-02T10:48:56;3.20;;;1.00;;
52962;SDS011;38827;53.024;6.596;2024-03-02T10:51:24;1.25;;;0.80;;
52962;SDS011;38827;53.024;6.596;2024-03-02T10:53:51;1.95;;;0.95;;
52962;SDS011;38827;53.024;6.596;2024-03-02T10:56:21;1.38;;;0.80;;
52962;SDS011;38827;53.024;6.596;2024-03-02T11:01:47;0.98;;;0.50;;
52962;SDS011;38827;53.024;6.596;2024-03-02T11:04:15;1.63;;;0.70;;
52962;SDS011;38827;53.024;6.596;2024-03-02T11:06:52;1.63;;;0.80;;
52962;SDS011;38827;53.024;6.596;2024-03-02T11:09:25;1.20;;;0.60;;
52962;SDS011;38827;53.024;6.596;2024-03-02T11:12:15;1.52;;;0.73;;
52962;SDS011;38827;53.024;6.596;2024-03-02T11:14:43;1.52;;;0.80;;
52962;SDS011;38827;53.024;6.596;2024-03-02T11:17:09;2.63;;;1.30;;
52962;SDS011;38827;53.024;6.596;2024-03-02T11:19:35;1.92;;;0.80;;
52962;SDS011;38827;53.024;6.596;2024-03-02T11:22:03;2.30;;;0.90;;
52962;SDS011;38827;53.024;6.596;2024-03-02T11:24:48;2.33;;;1.00;;
52962;SDS011;38827;53.024;6.596;2024-03-02T11:27:15;1.45;;;0.77;;
52962;SDS011;38827;53.024;6.596;2024-03-02T11:32:57;2.67;;;0.93;;
52962;SDS011;38827;53.024;6.596;2024-03-02T11:35:33;2.50;;;1.10;;
52962;SDS011;38827;53.024;6.596;2024-03-02T11:37:59;1.83;;;1.00;;
52962;SDS011;38827;53.024;6.596;2024-03-02T11:40:28;1.60;;;1.10;;
52962;SDS011;38827;53.024;6.596;2024-03-02T11:42:54;2.40;;;0.80;;
52962;SDS011;38827;53.024;6.596;2024-03-02T11:45:31;1.00;;;0.50;;
52962;SDS011;38827;53.024;6.596;2024-03-02T11:48:19;2.35;;;0.70;;
52962;SDS011;38827;53.024;6.596;2024-03-02T11:50:54;1.70;;;0.70;;
52962;SDS011;38827;53.024;6.596;2024-03-02T11:53:36;1.90;;;0.60;;
52962;SDS011;38827;53.024;6.596;2024-03-02T12:00:16;1.63;;;0.80;;
52962;SDS011;38827;53.024;6.596;2024-03-02T12:03:07;1.48;;;0.75;;
52962;SDS011;38827;53.024;6.596;2024-03-02T12:05:43;1.65;;;0.70;;
52962;SDS011;38827;53.024;6.596;2024-03-02T12:10:39;3.88;;;1.13;;
52962;SDS011;38827;53.024;6.596;2024-03-02T12:13:24;1.10;;;0.70;;
52962;SDS011;38827;53.024;6.596;2024-03-02T12:16:05;2.27;;;0.70;;
52962;SDS011;38827;53.024;6.596;2024-03-02T12:18:31;2.17;;;0.60;;
52962;SDS011;38827;53.024;6.596;2024-03-02T12:20:57;2.93;;;1.00;;
52962;SDS011;38827;53.024;6.596;2024-03-02T12:26:30;1.15;;;0.60;;
52962;SDS011;38827;53.024;6.596;2024-03-02T12:29:50;1.42;;;0.70;;
52962;SDS011;38827;53.024;6.596;2024-03-02T12:32:19;1.73;;;0.63;;
52962;SDS011;38827;53.024;6.596;2024-03-02T12:34:46;2.67;;;1.00;;
52962;SDS011;38827;53.024;6.596;2024-03-02T12:43:58;2.35;;;0.93;;
52962;SDS011;38827;53.024;6.596;2024-03-02T12:46:36;1.92;;;0.82;;
52962;SDS011;38827;53.024;6.596;2024-03-02T12:55:00;1.45;;;0.90;;
52962;SDS011;38827;53.024;6.596;2024-03-02T13:00:35;2.47;;;1.27;;
52962;SDS011;38827;53.024;6.596;2024-03-02T13:03:19;2.58;;;1.30;;
52962;SDS011;38827;53.024;6.596;2024-03-02T13:09:26;2.42;;;1.40;;
52962;SDS011;38827;53.024;6.596;2024-03-02T13:11:52;1.80;;;1.10;;
52962;SDS011;38827;53.024;6.596;2024-03-02T13:14:21;3.45;;;1.20;;
52962;SDS011;38827;53.024;6.596;2024-03-02T13:17:23;2.22;;;1.20;;
52962;SDS011;38827;53.024;6.596;2024-03-02T13:22:33;2.30;;;1.20;;
52962;SDS011;38827;53.024;6.596;2024-03-02T13:25:11;2.25;;;1.52;;
52962;SDS011;38827;53.024;6.596;2024-03-02T13:27:37;1.35;;;1.20;;
52962;SDS011;38827;53.024;6.596;2024-03-02T13:30:03;2.23;;;1.40;;
52962;SDS011;38827;53.024;6.596;2024-03-02T13:32:33;4.45;;;1.88;;
52962;SDS011;38827;53.024;6.596;2024-03-02T13:34:59;2.85;;;1.60;;
52962;SDS011;38827;53.024;6.596;2024-03-02T13:37:25;2.58;;;1.38;;
52962;SDS011;38827;53.024;6.596;2024-03-02T13:39:51;1.90;;;1.37;;
52962;SDS011;38827;53.024;6.596;2024-03-02T13:51:12;2.67;;;1.60;;
52962;SDS011;38827;53.024;6.596;2024-03-02T13:53:47;2.00;;;1.40;;
52962;SDS011;38827;53.024;6.596;2024-03-02T13:56:19;2.92;;;1.70;;
52962;SDS011;38827;53.024;6.596;2024-03-02T14:01:36;2.20;;;1.52;;
52962;SDS011;38827;53.024;6.596;2024-03-02T14:06:53;2.90;;;1.58;;
52962;SDS011;38827;53.024;6.596;2024-03-02T14:09:25;3.93;;;1.50;;
52962;SDS011;38827;53.024;6.596;2024-03-02T14:12:01;2.75;;;1.58;;
52962;SDS011;38827;53.024;6.596;2024-03-02T14:14:27;1.77;;;1.40;;
52962;SDS011;38827;53.024;6.596;2024-03-02T14:17:05;3.55;;;1.50;;
52962;SDS011;38827;53.024;6.596;2024-03-02T14:19:51;2.60;;;1.38;;
52962;SDS011;38827;53.024;6.596;2024-03-02T14:22:25;3.40;;;1.40;;
52962;SDS011;38827;53.024;6.596;2024-03-02T14:24:53;2.50;;;1.20;;
52962;SDS011;38827;53.024;6.596;2024-03-02T14:27:37;2.65;;;1.30;;
52962;SDS011;38827;53.024;6.596;2024-03-02T14:30:06;1.95;;;1.13;;
52962;SDS011;38827;53.024;6.596;2024-03-02T14:32:32;2.22;;;1.20;;
52962;SDS011;38827;53.024;6.596;2024-03-02T14:34:58;4.82;;;1.20;;
52962;SDS011;38827;53.024;6.596;2024-03-02T14:37:23;2.80;;;1.00;;
52962;SDS011;38827;53.024;6.596;2024-03-02T14:39:49;2.15;;;1.00;;
52962;SDS011;38827;53.024;6.596;2024-03-02T14:42:15;2.00;;;1.10;;
52962;SDS011;38827;53.024;6.596;2024-03-02T14:44:41;1.90;;;1.10;;
52962;SDS011;38827;53.024;6.596;2024-03-02T14:47:07;2.65;;;1.10;;
52962;SDS011;38827;53.024;6.596;2024-03-02T14:49:33;2.05;;;1.20;;
52962;SDS011;38827;53.024;6.596;2024-03-02T14:52:05;3.05;;;1.13;;
52962;SDS011;38827;53.024;6.596;2024-03-02T14:54:31;2.27;;;1.00;;
52962;SDS011;38827;53.024;6.596;2024-03-02T14:56:56;3.20;;;1.10;;
52962;SDS011;38827;53.024;6.596;2024-03-02T14:59:22;1.52;;;1.00;;
52962;SDS011;38827;53.024;6.596;2024-03-02T15:01:48;2.25;;;1.10;;
52962;SDS011;38827;53.024;6.596;2024-03-02T15:04:14;2.10;;;1.10;;
52962;SDS011;38827;53.024;6.596;2024-03-02T15:06:41;9.52;;;5.38;;
52962;SDS011;38827;53.024;6.596;2024-03-02T15:09:19;5.00;;;1.40;;
52962;SDS011;38827;53.024;6.596;2024-03-02T15:11:45;2.83;;;1.50;;
52962;SDS011;38827;53.024;6.596;2024-03-02T15:14:11;2.75;;;1.58;;
52962;SDS011;38827;53.024;6.596;2024-03-02T15:16:37;1.80;;;1.48;;
52962;SDS011;38827;53.024;6.596;2024-03-02T15:19:02;3.40;;;1.50;;
52962;SDS011;38827;53.024;6.596;2024-03-02T15:21:28;3.83;;;2.05;;
52962;SDS011;38827;53.024;6.596;2024-03-02T15:24:09;4.80;;;1.90;;
52962;SDS011;38827;53.024;6.596;2024-03-02T15:26:44;4.20;;;2.00;;
52962;SDS011;38827;53.024;6.596;2024-03-02T15:29:24;4.43;;;1.85;;
52962;SDS011;38827;53.024;6.596;2024-03-02T15:31:54;1.98;;;1.77;;
52962;SDS011;38827;53.024;6.596;2024-03-02T15:34:33;3.03;;;2.08;;
52962;SDS011;38827;53.024;6.596;2024-03-02T15:39:47;4.07;;;2.10;;
52962;SDS011;38827;53.024;6.596;2024-03-02T15:42:16;3.83;;;2.10;;
52962;SDS011;38827;53.024;6.596;2024-03-02T15:44:55;4.60;;;2.15;;
52962;SDS011;38827;53.024;6.596;2024-03-02T15:47:23;6.15;;;2.30;;
52962;SDS011;38827;53.024;6.596;2024-03-02T15:50:07;3.83;;;1.90;;
52962;SDS011;38827;53.024;6.596;2024-03-02T15:52:34;4.57;;;2.35;;
52962;SDS011;38827;53.024;6.596;2024-03-02T15:54:59;3.03;;;1.98;;
52962;SDS011;38827;53.024;6.596;2024-03-02T15:57:26;5.00;;;2.55;;
52962;SDS011;38827;53.024;6.596;2024-03-02T15:59:52;3.38;;;2.25;;
52962;SDS011;38827;53.024;6.596;2024-03-02T16:02:30;3.63;;;2.10;;
52962;SDS011;38827;53.024;6.596;2024-03-02T16:05:00;4.22;;;2.08;;
52962;SDS011;38827;53.024;6.596;2024-03-02T16:07:25;4.20;;;2.15;;
52962;SDS011;38827;53.024;6.596;2024-03-02T16:09:51;3.58;;;2.10;;
52962;SDS011;38827;53.024;6.596;2024-03-02T16:12:16;3.88;;;2.08;;
52962;SDS011;38827;53.024;6.596;2024-03-02T16:14:42;4.20;;;2.25;;
52962;SDS011;38827;53.024;6.596;2024-03-02T16:17:08;3.45;;;2.00;;
52962;SDS011;38827;53.024;6.596;2024-03-02T16:19:43;3.03;;;1.90;;
52962;SDS011;38827;53.024;6.596;2024-03-02T16:22:13;3.40;;;2.20;;
52962;SDS011;38827;53.024;6.596;2024-03-02T16:24:54;3.75;;;2.10;;
52962;SDS011;38827;53.024;6.596;2024-03-02T16:27:20;2.78;;;2.13;;
52962;SDS011;38827;53.024;6.596;2024-03-02T16:29:45;3.75;;;2.20;;
52962;SDS011;38827;53.024;6.596;2024-03-02T16:32:33;2.70;;;2.00;;
52962;SDS011;38827;53.024;6.596;2024-03-02T16:34:58;3.97;;;2.38;;
52962;SDS011;38827;53.024;6.596;2024-03-02T16:37:30;3.67;;;2.40;;
52962;SDS011;38827;53.024;6.596;2024-03-02T16:39:59;3.80;;;2.22;;
52962;SDS011;38827;53.024;6.596;2024-03-02T16:42:24;4.03;;;2.33;;
52962;SDS011;38827;53.024;6.596;2024-03-02T16:44:50;2.38;;;1.95;;
52962;SDS011;38827;53.024;6.596;2024-03-02T16:47:20;3.03;;;2.20;;
52962;SDS011;38827;53.024;6.596;2024-03-02T16:49:47;4.05;;;2.40;;
52962;SDS011;38827;53.024;6.596;2024-03-02T16:52:12;2.50;;;2.30;;
52962;SDS011;38827;53.024;6.596;2024-03-02T16:54:59;4.45;;;2.65;;
52962;SDS011;38827;53.024;6.596;2024-03-02T16:57:35;3.92;;;2.88;;
52962;SDS011;38827;53.024;6.596;2024-03-02T17:00:16;3.95;;;2.60;;
52962;SDS011;38827;53.024;6.596;2024-03-02T17:02:42;3.72;;;2.38;;
52962;SDS011;38827;53.024;6.596;2024-03-02T17:05:19;5.22;;;2.63;;
52962;SDS011;38827;53.024;6.596;2024-03-02T17:08:04;3.83;;;3.03;;
52962;SDS011;38827;53.024;6.596;2024-03-02T17:10:45;4.47;;;2.63;;
52962;SDS011;38827;53.024;6.596;2024-03-02T17:13:11;3.55;;;2.63;;
52962;SDS011;38827;53.024;6.596;2024-03-02T17:15:38;3.88;;;3.30;;
52962;SDS011;38827;53.024;6.596;2024-03-02T17:18:09;3.90;;;2.78;;
52962;SDS011;38827;53.024;6.596;2024-03-02T17:20:35;4.13;;;2.80;;
52962;SDS011;38827;53.024;6.596;2024-03-02T17:23:01;4.88;;;2.63;;
52962;SDS011;38827;53.024;6.596;2024-03-02T17:25:45;3.85;;;2.70;;
52962;SDS011;38827;53.024;6.596;2024-03-02T17:30:59;4.22;;;2.80;;
52962;SDS011;38827;53.024;6.596;2024-03-02T17:33:33;4.25;;;2.40;;
52962;SDS011;38827;53.024;6.596;2024-03-02T17:35:58;2.55;;;2.25;;
52962;SDS011;38827;53.024;6.596;2024-03-02T17:38:24;3.75;;;2.42;;
52962;SDS011;38827;53.024;6.596;2024-03-02T17:40:50;2.80;;;2.38;;
52962;SDS011;38827;53.024;6.596;2024-03-02T17:43:18;4.13;;;2.85;;
52962;SDS011;38827;53.024;6.596;2024-03-02T17:45:47;4.40;;;2.65;;
52962;SDS011;38827;53.024;6.596;2024-03-02T17:48:13;4.88;;;3.05;;
52962;SDS011;38827;53.024;6.596;2024-03-02T17:50:45;4.60;;;4.20;;
52962;SDS011;38827;53.024;6.596;2024-03-02T17:53:12;4.25;;;3.08;;
52962;SDS011;38827;53.024;6.596;2024-03-02T17:55:40;4.72;;;2.90;;
52962;SDS011;38827;53.024;6.596;2024-03-02T17:58:06;3.40;;;2.88;;
52962;SDS011;38827;53.024;6.596;2024-03-02T18:00:31;3.33;;;2.80;;
52962;SDS011;38827;53.024;6.596;2024-03-02T18:03:01;3.83;;;2.70;;
52962;SDS011;38827;53.024;6.596;2024-03-02T18:05:27;4.43;;;2.95;;
52962;SDS011;38827;53.024;6.596;2024-03-02T18:07:52;5.80;;;3.95;;